KHHG

Huntington Municipal Airport

Huntington, Indiana, USA
METAR KHHG 170555Z AUTO 00000KT 10SM CLR M01/M03 A3010 RMK AO2 T10081034 10012 21029 TSNO
Observed Flight Rules
Dec-17 @ 05:55 UTC (17 minutes ago) Visual Flight Rules
Wind Visibility Clouds
Calm 10 miles
  • Clear skies
Temperatures Readings
Current -1°C / 30°F
Dewpoint -3°C / 27°F
Humidity 86%
Altimeter 30.1" Hg
Pressure 1019 hPa
Elevation 246
METAR KHHG 170555Z AUTO 00000KT 10SM CLR M01/M03 A3010 RMK AO2 T10081034 10012 21029 TSNO
Observed Flight Rules
Dec-17 @ 05:55 UTC
(17 minutes ago)
VFR
Wind Visibility
Calm 10 miles
Clouds
  • Clear skies
Temperature Dewpoint
-1°C / 30°F -3°C / 27°F
Humidity Altimeter Pressure
86% 30.1" Hg 1019 hPa